Time;durP1;ratioP1;P1;durP2;ratioP2;P2;SDS_P1;SDS_P2;PMS_P1;PMS_P2;Temp;Humidity;BMP_temperature;BMP_pressure;BME280_temperature;BME280_humidity;BME280_pressure;Samples;Min_cycle;Max_cycle;Signal;HPM_P1;HPM_P2
2021/11/24 00:00:00;;;;;;;3.85;2.28;;;6.00;99.90;;;;;;4974650;28;20526;-75
2021/11/24 00:02:26;;;;;;;4.78;2.83;;;6.00;99.90;;;;;;4974774;28;20078;-75
2021/11/24 00:04:51;;;;;;;7.60;2.75;;;6.10;99.90;;;;;;4957298;28;20023;-76
2021/11/24 00:07:17;;;;;;;4.40;2.33;;;6.10;99.90;;;;;;4957269;28;20066;-75
2021/11/24 00:09:43;;;;;;;8.80;2.15;;;6.10;99.90;;;;;;4974615;28;20027;-76
2021/11/24 00:12:08;;;;;;;2.70;1.75;;;6.10;99.90;;;;;;4974768;28;20480;-76
2021/11/24 00:14:34;;;;;;;5.45;2.25;;;6.10;99.90;;;;;;4957061;28;20080;-76
2021/11/24 00:17:00;;;;;;;4.20;1.95;;;6.00;99.90;;;;;;4974712;28;20109;-75
2021/11/24 00:19:25;;;;;;;3.38;1.73;;;6.00;99.90;;;;;;4975118;28;20030;-75
2021/11/24 00:21:51;;;;;;;3.92;2.17;;;5.90;99.90;;;;;;4957222;28;20023;-76
2021/11/24 00:24:16;;;;;;;3.65;1.92;;;5.90;99.90;;;;;;4974546;28;20023;-76
2021/11/24 00:26:42;;;;;;;3.63;1.25;;;5.80;99.90;;;;;;4957065;28;20027;-75
2021/11/24 00:29:08;;;;;;;4.60;2.00;;;5.70;99.90;;;;;;4974727;28;20449;-76
2021/11/24 00:31:33;;;;;;;4.72;2.50;;;5.60;99.90;;;;;;4957143;28;20110;-76
2021/11/24 00:34:02;;;;;;;3.85;1.63;;;5.60;99.90;;;;;;4957407;28;20054;-76
2021/11/24 00:36:27;;;;;;;5.55;2.20;;;5.60;99.90;;;;;;4974364;28;20093;-75
2021/11/24 00:38:53;;;;;;;4.22;2.42;;;5.50;99.90;;;;;;4956846;28;20496;-75
2021/11/24 00:41:19;;;;;;;6.05;2.65;;;5.50;99.90;;;;;;4956925;28;20027;-75
2021/11/24 00:43:44;;;;;;;7.07;3.55;;;5.50;99.90;;;;;;4974939;28;20033;-75
2021/11/24 00:46:10;;;;;;;4.47;2.25;;;5.40;99.90;;;;;;4959190;28;20021;-75
2021/11/24 00:48:36;;;;;;;5.53;3.28;;;5.40;99.90;;;;;;4978369;28;20468;-76
2021/11/24 00:51:01;;;;;;;11.23;4.20;;;5.40;99.90;;;;;;4977768;28;20098;-76
2021/11/24 00:53:27;;;;;;;5.60;3.17;;;5.40;99.90;;;;;;4978021;28;20031;-75
2021/11/24 00:55:53;;;;;;;8.20;3.67;;;5.40;99.90;;;;;;4978015;28;20069;-75
2021/11/24 00:58:19;;;;;;;8.63;3.42;;;5.40;99.90;;;;;;4960421;28;20031;-75
2021/11/24 01:00:45;;;;;;;6.63;3.10;;;5.40;99.90;;;;;;4977723;28;20035;-75
2021/11/24 01:03:11;;;;;;;7.18;3.75;;;5.40;99.90;;;;;;4977698;28;20023;-75
2021/11/24 01:05:37;;;;;;;6.90;3.50;;;5.40;99.90;;;;;;4959955;28;20428;-76
2021/11/24 01:08:03;;;;;;;5.70;3.35;;;5.40;99.90;;;;;;4977790;28;20031;-75
2021/11/24 01:10:29;;;;;;;5.70;2.85;;;5.40;99.90;;;;;;4977610;28;20022;-75
2021/11/24 01:12:55;;;;;;;6.20;2.90;;;5.40;99.90;;;;;;4960191;28;20054;-76
2021/11/24 01:15:22;;;;;;;5.80;3.05;;;5.40;99.90;;;;;;4977439;28;20031;-75
2021/11/24 01:17:47;;;;;;;5.53;2.80;;;5.40;99.90;;;;;;4977393;28;20026;-76
2021/11/24 01:20:15;;;;;;;6.88;3.03;;;5.40;99.90;;;;;;4977391;28;20035;-76
2021/11/24 01:22:42;;;;;;;8.18;3.30;;;5.40;99.90;;;;;;4960181;28;20027;-76
2021/11/24 01:25:08;;;;;;;5.72;3.08;;;5.40;99.90;;;;;;4977430;28;20023;-77
2021/11/24 01:27:34;;;;;;;4.78;2.50;;;5.40;99.90;;;;;;4977486;28;20034;-76
2021/11/24 01:29:59;;;;;;;10.93;3.35;;;5.40;99.90;;;;;;4977286;28;20027;-77
2021/11/24 01:32:25;;;;;;;5.50;2.72;;;5.50;99.90;;;;;;4960097;28;20027;-76
2021/11/24 01:34:51;;;;;;;5.40;2.88;;;5.50;99.90;;;;;;4959772;28;20095;-76
2021/11/24 01:37:16;;;;;;;7.72;3.33;;;5.50;99.90;;;;;;4959901;28;20031;-77
2021/11/24 01:39:42;;;;;;;5.35;2.90;;;5.50;99.90;;;;;;4976340;28;20038;-77
2021/11/24 01:42:10;;;;;;;6.85;3.58;;;5.60;99.90;;;;;;4977205;28;20039;-77
2021/11/24 01:44:36;;;;;;;6.43;3.00;;;5.60;99.90;;;;;;4976761;28;20019;-77
2021/11/24 01:47:04;;;;;;;6.25;3.33;;;5.60;99.90;;;;;;4959408;28;20392;-77
2021/11/24 01:49:30;;;;;;;7.43;3.77;;;5.70;99.90;;;;;;4977105;28;20026;-76
2021/11/24 01:51:57;;;;;;;7.85;3.03;;;5.70;99.90;;;;;;4977209;28;20266;-76
2021/11/24 01:54:24;;;;;;;5.20;3.28;;;5.70;99.90;;;;;;4959116;28;20400;-76
2021/11/24 01:56:50;;;;;;;7.03;3.47;;;5.70;99.90;;;;;;4976770;28;20070;-76
2021/11/24 01:59:16;;;;;;;5.85;3.15;;;5.70;99.90;;;;;;4959390;28;20027;-76
2021/11/24 02:01:44;;;;;;;6.00;3.25;;;5.80;99.90;;;;;;4959066;28;20467;-76
2021/11/24 02:04:16;;;;;;;6.13;2.95;;;5.80;99.90;;;;;;4958991;28;20027;-76
2021/11/24 02:06:43;;;;;;;5.13;3.15;;;5.80;99.90;;;;;;4976682;28;20081;-77
2021/11/24 02:09:09;;;;;;;6.40;3.30;;;5.80;99.90;;;;;;4958784;28;20436;-76
2021/11/24 02:11:38;;;;;;;7.10;4.10;;;5.80;99.90;;;;;;4976477;28;20030;-76
2021/11/24 02:14:04;;;;;;;6.22;3.28;;;5.90;99.90;;;;;;4976403;28;20054;-76
2021/11/24 02:16:30;;;;;;;5.75;3.25;;;5.90;99.90;;;;;;4958927;28;20030;-77
2021/11/24 02:18:55;;;;;;;4.70;2.85;;;5.90;99.90;;;;;;4976545;28;20085;-76
2021/11/24 02:21:21;;;;;;;6.53;3.42;;;5.90;99.90;;;;;;4976573;28;20027;-75
2021/11/24 02:23:47;;;;;;;6.00;2.85;;;5.90;99.90;;;;;;4976044;28;20042;-76
2021/11/24 02:26:12;;;;;;;5.28;3.67;;;6.00;99.90;;;;;;4977145;28;20041;-78
2021/11/24 02:28:41;;;;;;;5.55;3.20;;;6.00;99.90;;;;;;4958903;28;20109;-78
2021/11/24 02:31:17;;;;;;;;;;;6.00;99.90;;;;;;4976924;28;20090;-79
2021/11/24 02:33:49;;;;;;;4.70;2.70;;;6.00;99.90;;;;;;4976047;28;19910;-77
2021/11/24 02:36:14;;;;;;;5.57;3.08;;;6.00;99.90;;;;;;4968675;28;20038;-78
2021/11/24 02:38:40;;;;;;;4.88;3.17;;;6.00;99.90;;;;;;4976200;28;20026;-78
2021/11/24 02:41:05;;;;;;;9.05;3.50;;;6.00;99.90;;;;;;4976111;28;20476;-78
2021/11/24 02:43:31;;;;;;;5.38;2.95;;;6.00;99.90;;;;;;4975976;28;20167;-77
2021/11/24 02:45:56;;;;;;;6.28;3.75;;;6.00;99.90;;;;;;4976430;28;20026;-78
2021/11/24 02:48:22;;;;;;;8.25;3.47;;;6.10;99.90;;;;;;4958535;28;20122;-78
2021/11/24 02:50:48;;;;;;;7.57;3.05;;;6.10;99.90;;;;;;5005033;23;20132;-78
2021/11/24 02:53:14;;;;;;;8.23;3.25;;;6.00;99.90;;;;;;5026163;28;20046;-78
2021/11/24 02:55:39;;;;;;;6.55;3.40;;;6.10;99.90;;;;;;4997363;28;20026;-79
2021/11/24 02:58:05;;;;;;;10.77;3.90;;;6.10;99.90;;;;;;5014743;28;20079;-78
2021/11/24 03:00:33;;;;;;;6.13;3.25;;;6.10;99.90;;;;;;5015267;28;20030;-78
2021/11/24 03:02:58;;;;;;;5.57;3.53;;;6.10;99.90;;;;;;5014347;28;20037;-78
2021/11/24 03:05:26;;;;;;;5.28;3.03;;;6.10;99.90;;;;;;5014718;28;20026;-78
2021/11/24 03:07:52;;;;;;;7.50;3.72;;;6.20;99.90;;;;;;4996206;28;20022;-78
2021/11/24 03:10:19;;;;;;;6.05;3.28;;;6.10;99.90;;;;;;4997088;28;20493;-78
2021/11/24 03:12:44;;;;;;;6.68;3.15;;;6.20;99.90;;;;;;5014739;28;20030;-78
2021/11/24 03:15:10;;;;;;;5.75;3.58;;;6.20;99.90;;;;;;4997052;28;20516;-80
2021/11/24 03:17:36;;;;;;;6.88;3.97;;;6.20;99.90;;;;;;5014575;28;20453;-78
2021/11/24 03:20:06;;;;;;;7.28;4.00;;;6.20;99.90;;;;;;5014101;28;20037;-78
2021/11/24 03:22:32;;;;;;;5.72;3.40;;;6.20;99.90;;;;;;4996794;28;20116;-78
2021/11/24 03:24:58;;;;;;;7.05;3.60;;;6.30;99.90;;;;;;5014176;28;20050;-78
2021/11/24 03:27:26;;;;;;;7.30;4.38;;;6.30;99.90;;;;;;4997565;28;20105;-78
2021/11/24 03:29:52;;;;;;;5.82;3.25;;;6.30;99.90;;;;;;5014413;28;20076;-75
2021/11/24 03:32:18;;;;;;;6.40;3.47;;;6.30;99.90;;;;;;5014301;28;20022;-74
2021/11/24 03:34:44;;;;;;;5.93;3.05;;;6.40;99.90;;;;;;5013858;28;20026;-75
2021/11/24 03:37:09;;;;;;;7.10;3.58;;;6.60;99.90;;;;;;4996554;28;20037;-75
2021/11/24 03:39:35;;;;;;;5.97;3.20;;;6.40;99.90;;;;;;5014142;28;20030;-74
2021/11/24 03:42:01;;;;;;;7.55;3.00;;;6.40;99.90;;;;;;5014430;28;20057;-74
2021/11/24 03:44:26;;;;;;;7.00;3.67;;;6.30;99.90;;;;;;5013685;28;20022;-74
2021/11/24 03:46:52;;;;;;;8.45;3.40;;;6.30;99.90;;;;;;5013963;28;20372;-75
2021/11/24 03:49:17;;;;;;;9.00;3.95;;;6.40;99.90;;;;;;4996334;28;20014;-75
2021/11/24 03:51:43;;;;;;;6.95;3.55;;;6.40;99.90;;;;;;5013876;28;20034;-75
2021/11/24 03:54:08;;;;;;;7.55;3.42;;;6.40;99.90;;;;;;4996093;28;20034;-75
2021/11/24 03:56:34;;;;;;;8.32;3.40;;;6.40;99.90;;;;;;5013969;28;20030;-75
2021/11/24 03:58:59;;;;;;;7.20;3.45;;;6.40;99.90;;;;;;5013885;28;20064;-75
2021/11/24 04:01:25;;;;;;;6.30;2.78;;;6.40;99.90;;;;;;5013777;28;20022;-74
2021/11/24 04:03:51;;;;;;;8.60;3.63;;;6.40;99.90;;;;;;5013465;28;20034;-75
2021/11/24 04:06:16;;;;;;;6.20;3.50;;;6.40;99.90;;;;;;5014110;28;20015;-74
2021/11/24 04:08:42;;;;;;;8.45;3.50;;;6.50;99.90;;;;;;4996298;28;20471;-75
2021/11/24 04:11:07;;;;;;;5.68;3.13;;;6.50;99.90;;;;;;5014345;28;20041;-74
2021/11/24 04:13:33;;;;;;;8.40;3.50;;;6.50;99.90;;;;;;5013774;28;20037;-74
2021/11/24 04:15:59;;;;;;;6.45;3.53;;;6.50;99.90;;;;;;5013451;28;20160;-75
2021/11/24 04:18:24;;;;;;;8.77;3.45;;;6.50;99.90;;;;;;5013859;28;20026;-75
2021/11/24 04:20:54;;;;;;;8.38;3.63;;;6.50;99.90;;;;;;5017171;28;20038;-74
2021/11/24 04:23:20;;;;;;;7.00;3.25;;;6.50;99.90;;;;;;5017535;28;20428;-75
2021/11/24 04:25:45;;;;;;;10.57;3.83;;;6.50;99.90;;;;;;5017464;28;20057;-75
2021/11/24 04:28:11;;;;;;;15.82;6.80;;;6.60;99.90;;;;;;5017474;28;20026;-75
2021/11/24 04:30:36;;;;;;;11.32;6.18;;;6.60;99.90;;;;;;5017640;28;20029;-77
2021/11/24 04:33:02;;;;;;;15.55;5.75;;;6.60;99.90;;;;;;5000060;28;20030;-77
2021/11/24 04:35:28;;;;;;;11.15;5.40;;;6.60;99.90;;;;;;5000637;28;20019;-78
2021/11/24 04:37:53;;;;;;;9.80;5.25;;;6.70;99.90;;;;;;5017856;28;20022;-77
2021/11/24 04:40:19;;;;;;;11.70;4.82;;;6.60;99.90;;;;;;5017505;28;20026;-77
2021/11/24 04:42:45;;;;;;;9.82;4.95;;;6.70;99.90;;;;;;5017446;28;20014;-77
2021/11/24 04:45:11;;;;;;;8.90;3.88;;;6.60;99.90;;;;;;5017243;28;20038;-77
2021/11/24 04:47:37;;;;;;;11.40;4.90;;;6.60;99.90;;;;;;5017447;28;20433;-77
2021/11/24 04:50:04;;;;;;;9.35;4.70;;;6.60;99.90;;;;;;4999413;28;20425;-77
2021/11/24 04:52:29;;;;;;;8.73;4.57;;;6.60;99.90;;;;;;5016911;28;20030;-78
2021/11/24 04:54:55;;;;;;;8.25;4.07;;;6.60;99.90;;;;;;4999400;28;20017;-77
2021/11/24 04:57:21;;;;;;;9.02;4.60;;;6.60;99.90;;;;;;4999208;28;20117;-78
2021/11/24 04:59:47;;;;;;;11.57;4.53;;;6.60;99.90;;;;;;5017220;28;20096;-78
2021/11/24 05:02:12;;;;;;;8.85;4.13;;;6.60;99.90;;;;;;4999232;28;20544;-78
2021/11/24 05:04:38;;;;;;;8.00;4.03;;;6.70;99.90;;;;;;5016937;28;20053;-77
2021/11/24 05:07:04;;;;;;;9.10;4.20;;;6.70;99.90;;;;;;4999585;28;20017;-77
2021/11/24 05:09:30;;;;;;;7.13;3.63;;;6.70;99.90;;;;;;5017335;28;20041;-77
2021/11/24 05:11:55;;;;;;;9.93;4.47;;;6.70;99.90;;;;;;5017074;28;20026;-77
2021/11/24 05:14:26;;;;;;;8.13;3.92;;;6.70;99.90;;;;;;4999416;28;20024;-78
2021/11/24 05:16:52;;;;;;;11.10;4.15;;;6.60;99.90;;;;;;5017636;28;20025;-77
2021/11/24 05:19:20;;;;;;;8.65;4.20;;;6.60;99.90;;;;;;4999960;28;20022;-78
2021/11/24 05:21:50;;;;;;;8.90;4.32;;;6.60;99.90;;;;;;5017313;28;20080;-77
2021/11/24 05:24:16;;;;;;;12.65;4.53;;;6.70;99.90;;;;;;5017648;28;20022;-78
2021/11/24 05:26:42;;;;;;;13.75;5.07;;;6.60;99.90;;;;;;5017763;28;20025;-77
2021/11/24 05:29:08;;;;;;;9.07;4.75;;;6.70;99.90;;;;;;4999481;28;20026;-77
2021/11/24 05:31:33;;;;;;;9.60;4.00;;;6.70;99.90;;;;;;5015760;28;20368;-77
2021/11/24 05:34:00;;;;;;;11.40;4.50;;;6.70;99.90;;;;;;5022344;28;20045;-78
2021/11/24 05:36:25;;;;;;;9.82;4.07;;;6.70;99.90;;;;;;5011281;28;20025;-78
2021/11/24 05:38:51;;;;;;;8.93;4.43;;;6.70;99.90;;;;;;5028872;28;20514;-78
2021/11/24 05:41:17;;;;;;;7.82;4.15;;;6.70;99.90;;;;;;5004357;28;20447;-78
2021/11/24 05:43:44;;;;;;;11.77;4.45;;;6.70;99.90;;;;;;5024713;28;20030;-78
2021/11/24 05:48:37;;;;;;;9.75;4.18;;;6.70;99.90;;;;;;5019116;28;20119;-78
2021/11/24 05:51:03;;;;;;;14.88;4.50;;;6.70;99.90;;;;;;5018673;28;20033;-78
2021/11/24 05:53:28;;;;;;;8.07;4.43;;;6.70;99.90;;;;;;5006129;28;20032;-78
2021/11/24 05:55:54;;;;;;;15.07;5.03;;;6.80;99.90;;;;;;5025410;28;20029;-79
2021/11/24 05:58:21;;;;;;;10.95;4.78;;;6.80;99.90;;;;;;5013430;28;20022;-78
2021/11/24 06:00:47;;;;;;;13.68;5.18;;;6.80;99.90;;;;;;5009739;28;20163;-79
2021/11/24 06:03:13;;;;;;;9.75;5.22;;;6.80;99.90;;;;;;5008080;28;20057;-78
2021/11/24 06:05:38;;;;;;;10.88;4.68;;;6.80;99.90;;;;;;5025310;28;20368;-78
2021/11/24 06:08:04;;;;;;;15.18;5.32;;;6.80;99.90;;;;;;5004851;28;20029;-78
2021/11/24 06:10:30;;;;;;;11.05;5.38;;;6.80;99.90;;;;;;5026718;28;20022;-79
2021/11/24 06:12:56;;;;;;;14.27;6.00;;;6.80;99.90;;;;;;5029331;28;20055;-79
2021/11/24 06:15:21;;;;;;;12.13;5.10;;;6.80;99.90;;;;;;5010472;28;20384;-79
2021/11/24 06:17:47;;;;;;;13.25;5.03;;;6.80;99.90;;;;;;5029550;28;20026;-79
2021/11/24 06:20:15;;;;;;;14.38;6.47;;;6.70;99.90;;;;;;5011875;28;20036;-79
2021/11/24 06:22:43;;;;;;;11.23;4.90;;;6.80;99.90;;;;;;5012165;28;20025;-79
2021/11/24 06:25:11;;;;;;;11.88;4.07;;;6.80;99.90;;;;;;5029935;28;20026;-79
2021/11/24 06:27:38;;;;;;;10.75;5.18;;;6.80;99.90;;;;;;5029312;28;20464;-79
2021/11/24 06:30:04;;;;;;;11.73;5.57;;;6.80;99.90;;;;;;5029835;28;20034;-79
2021/11/24 06:32:30;;;;;;;11.60;5.43;;;6.80;99.90;;;;;;5017314;28;20025;-75
2021/11/24 06:34:56;;;;;;;12.63;6.03;;;6.80;99.90;;;;;;5015329;28;20025;-75
2021/11/24 06:37:21;;;;;;;12.02;5.50;;;6.80;99.90;;;;;;5015143;28;20038;-78
2021/11/24 06:39:47;;;;;;;13.30;6.32;;;6.80;99.90;;;;;;4997350;28;20026;-73
2021/11/24 06:42:13;;;;;;;12.48;4.93;;;6.80;99.90;;;;;;4996701;28;20037;-75
2021/11/24 06:44:38;;;;;;;12.18;5.22;;;6.80;99.90;;;;;;5014047;28;20029;-73
2021/11/24 06:47:04;;;;;;;11.60;5.45;;;6.90;99.90;;;;;;5014909;28;20149;-73
2021/11/24 06:49:30;;;;;;;14.18;6.15;;;6.90;99.90;;;;;;4996985;28;20029;-74
2021/11/24 06:51:55;;;;;;;15.77;6.40;;;6.80;99.90;;;;;;4998943;28;20430;-78
2021/11/24 06:54:21;;;;;;;12.57;5.75;;;6.80;99.90;;;;;;5003802;28;20018;-80
2021/11/24 06:56:49;;;;;;;12.13;5.25;;;6.80;99.90;;;;;;5000685;28;20120;-78
2021/11/24 06:59:16;;;;;;;12.15;5.18;;;6.80;99.90;;;;;;4996739;28;20036;-78
2021/11/24 07:01:44;;;;;;;12.95;6.28;;;6.80;99.90;;;;;;4996479;28;20112;-77
2021/11/24 07:04:10;;;;;;;13.15;6.30;;;6.80;99.90;;;;;;4998056;28;20048;-77
2021/11/24 07:06:36;;;;;;;15.73;6.35;;;6.80;99.90;;;;;;5017144;28;20053;-78
2021/11/24 07:09:03;;;;;;;16.40;6.05;;;6.80;99.90;;;;;;4998029;28;20471;-77
2021/11/24 07:11:31;;;;;;;12.35;5.75;;;6.80;99.90;;;;;;4997214;28;20084;-76
2021/11/24 07:13:57;;;;;;;13.77;6.05;;;6.80;99.90;;;;;;4996285;28;20030;-76
2021/11/24 07:16:25;;;;;;;13.52;5.40;;;8.40;99.90;;;;;;5013680;28;20040;-77
2021/11/24 07:18:51;;;;;;;12.98;5.88;;;6.80;99.90;;;;;;5013242;28;20036;-78
2021/11/24 07:21:17;;;;;;;15.43;5.97;;;6.80;99.90;;;;;;5008815;28;20030;-76
2021/11/24 07:23:43;;;;;;;13.57;5.88;;;6.80;99.90;;;;;;4996217;28;20030;-76
2021/11/24 07:26:08;;;;;;;10.73;4.90;;;6.80;99.90;;;;;;5013980;28;20024;-75
2021/11/24 07:28:34;;;;;;;11.90;4.90;;;6.80;99.90;;;;;;4995420;28;20025;-75
2021/11/24 07:30:59;;;;;;;12.75;5.53;;;6.80;99.90;;;;;;5012771;28;20117;-76
2021/11/24 07:33:25;;;;;;;14.55;6.10;;;6.80;99.90;;;;;;5013953;28;20026;-76
2021/11/24 07:35:51;;;;;;;16.00;5.88;;;6.80;99.90;;;;;;5013376;28;20109;-77
2021/11/24 07:38:17;;;;;;;8.13;3.40;;;6.90;99.90;;;;;;4995864;28;20379;-76
2021/11/24 07:40:43;;;;;;;10.80;3.38;;;6.90;99.90;;;;;;5013119;28;20053;-76
2021/11/24 07:43:08;;;;;;;10.75;3.95;;;6.90;99.90;;;;;;4995658;28;20018;-75
2021/11/24 07:45:34;;;;;;;10.68;4.18;;;6.90;99.90;;;;;;4995784;28;20023;-76
2021/11/24 07:48:00;;;;;;;9.43;3.92;;;6.90;99.90;;;;;;4995847;28;20033;-77
2021/11/24 07:50:26;;;;;;;10.35;4.53;;;7.00;99.90;;;;;;5012997;28;20034;-76
2021/11/24 07:52:52;;;;;;;14.45;4.35;;;7.00;99.90;;;;;;5013505;28;20029;-76
2021/11/24 07:55:18;;;;;;;13.02;5.13;;;7.00;99.90;;;;;;5012866;28;20034;-76
2021/11/24 07:57:44;;;;;;;15.50;5.03;;;7.00;99.90;;;;;;4995916;28;20068;-75
2021/11/24 08:00:11;;;;;;;14.45;5.40;;;7.00;99.90;;;;;;4995134;28;20443;-76
2021/11/24 08:02:36;;;;;;;13.32;5.28;;;7.00;99.90;;;;;;4995367;28;20029;-75
2021/11/24 08:05:04;;;;;;;13.13;4.57;;;7.00;99.90;;;;;;5012951;28;20022;-75
2021/11/24 08:07:32;;;;;;;16.65;5.63;;;7.00;99.90;;;;;;5012351;28;20067;-76
2021/11/24 08:09:58;;;;;;;13.32;4.68;;;7.00;99.90;;;;;;5013309;28;20014;-75
2021/11/24 08:12:23;;;;;;;18.92;5.45;;;7.10;99.90;;;;;;5011775;28;20049;-76
2021/11/24 08:14:49;;;;;;;14.15;5.22;;;7.10;99.90;;;;;;5013252;28;20471;-75
2021/11/24 08:17:15;;;;;;;14.80;5.78;;;7.10;99.90;;;;;;4995356;28;20530;-75
2021/11/24 08:19:40;;;;;;;12.32;4.82;;;7.10;99.90;;;;;;5013284;28;20022;-76
2021/11/24 08:22:06;;;;;;;15.13;5.15;;;7.10;99.90;;;;;;5012653;28;20026;-76
2021/11/24 08:24:31;;;;;;;16.15;5.32;;;7.20;99.90;;;;;;5013139;28;20018;-75
2021/11/24 08:26:57;;;;;;;12.40;4.70;;;7.20;99.90;;;;;;4995025;28;20026;-75
2021/11/24 08:29:22;;;;;;;14.50;5.90;;;7.20;99.90;;;;;;4995516;28;20025;-75
2021/11/24 08:31:48;;;;;;;12.48;5.30;;;7.20;99.90;;;;;;5013121;28;20032;-75
2021/11/24 08:34:14;;;;;;;12.35;5.18;;;7.30;99.90;;;;;;4995717;28;20080;-76
2021/11/24 08:36:40;;;;;;;12.25;5.18;;;7.40;99.90;;;;;;4994990;28;20076;-76
2021/11/24 08:39:09;;;;;;;11.23;4.93;;;7.40;99.90;;;;;;5012400;28;20041;-76
2021/11/24 08:41:35;;;;;;;15.52;5.60;;;7.40;99.90;;;;;;5012738;28;20030;-76
2021/11/24 08:44:00;;;;;;;16.05;5.60;;;7.40;99.90;;;;;;5012961;28;20486;-75
2021/11/24 08:46:26;;;;;;;16.55;6.30;;;7.50;99.90;;;;;;5012357;28;20025;-76
2021/11/24 08:48:52;;;;;;;14.23;5.13;;;7.50;99.90;;;;;;4994750;28;20116;-75
2021/11/24 08:51:17;;;;;;;12.90;5.78;;;7.50;99.90;;;;;;4995110;28;20029;-76
2021/11/24 08:53:43;;;;;;;17.30;6.13;;;7.50;99.90;;;;;;5012604;28;20042;-76
2021/11/24 08:56:08;;;;;;;13.80;6.03;;;7.40;99.90;;;;;;5012937;28;20022;-76
2021/11/24 08:58:34;;;;;;;14.75;5.88;;;7.50;99.90;;;;;;4994875;28;20390;-76
2021/11/24 09:01:00;;;;;;;14.35;5.82;;;7.50;99.90;;;;;;5012030;28;20026;-76
2021/11/24 09:03:25;;;;;;;15.82;5.25;;;7.60;99.90;;;;;;4994666;28;20014;-75
2021/11/24 09:05:51;;;;;;;17.45;7.15;;;7.50;99.90;;;;;;5012570;28;20101;-75
2021/11/24 09:08:17;;;;;;;17.25;5.43;;;7.60;99.90;;;;;;5016185;28;20055;-76
2021/11/24 09:10:43;;;;;;;14.63;5.57;;;7.60;99.90;;;;;;5015940;28;20705;-75
2021/11/24 09:13:09;;;;;;;16.63;6.78;;;7.60;99.90;;;;;;5015514;28;20034;-76
2021/11/24 09:15:35;;;;;;;15.63;6.47;;;7.60;99.90;;;;;;4998212;28;20032;-76
2021/11/24 09:18:02;;;;;;;13.70;5.55;;;7.60;99.90;;;;;;4997925;28;20030;-76
2021/11/24 09:20:27;;;;;;;15.63;6.07;;;7.70;99.90;;;;;;5016080;28;20026;-76
2021/11/24 09:22:53;;;;;;;14.68;6.68;;;7.70;99.90;;;;;;5015771;28;20537;-76
2021/11/24 09:25:22;;;;;;;16.73;6.40;;;7.70;99.90;;;;;;5015944;28;20026;-76
2021/11/24 09:28:06;;;;;;;13.43;6.00;;;7.80;99.90;;;;;;5015886;28;20022;-76
2021/11/24 09:30:32;;;;;;;16.48;5.68;;;7.80;99.90;;;;;;4997605;28;20121;-75
2021/11/24 09:32:58;;;;;;;14.90;5.68;;;7.90;99.90;;;;;;5015170;28;20030;-76
2021/11/24 09:35:24;;;;;;;15.68;6.13;;;7.90;99.90;;;;;;4998211;28;20049;-76
2021/11/24 09:37:49;;;;;;;13.50;4.93;;;7.90;99.90;;;;;;4998035;28;20171;-76
2021/11/24 09:40:16;;;;;;;12.95;4.88;;;8.00;99.90;;;;;;5011431;28;20087;-76
2021/11/24 09:42:45;;;;;;;14.82;5.70;;;8.00;99.90;;;;;;4997472;28;20033;-76
2021/11/24 09:45:11;;;;;;;;;;;8.00;99.90;;;;;;4998134;28;20025;-76
2021/11/24 09:47:37;;;;;;;14.10;5.43;;;8.00;99.90;;;;;;5015221;28;19910;-76
2021/11/24 09:50:07;;;;;;;11.63;4.50;;;8.00;99.90;;;;;;4997481;28;20117;-76
2021/11/24 09:52:34;;;;;;;11.70;5.05;;;8.10;99.90;;;;;;5015020;28;20478;-76
2021/11/24 09:55:00;;;;;;;13.20;4.93;;;8.10;99.90;;;;;;5015226;28;20065;-75
2021/11/24 09:57:27;;;;;;;10.07;4.20;;;8.10;99.90;;;;;;4997126;28;20065;-76
2021/11/24 09:59:54;;;;;;;12.40;4.60;;;8.10;99.90;;;;;;4995908;28;20119;-76
2021/11/24 10:02:20;;;;;;;12.93;4.43;;;8.10;99.90;;;;;;5007265;28;20019;-76
2021/11/24 10:04:47;;;;;;;11.35;5.07;;;8.10;99.90;;;;;;4996830;28;20101;-76
2021/11/24 10:07:15;;;;;;;12.35;4.22;;;8.20;99.90;;;;;;4995416;28;20029;-76
2021/11/24 10:09:41;;;;;;;11.10;3.92;;;8.20;99.90;;;;;;5011572;28;20352;-76
2021/11/24 10:12:08;;;;;;;9.73;3.28;;;8.20;99.90;;;;;;5015002;28;20030;-76
2021/11/24 10:14:36;;;;;;;10.10;3.45;;;8.20;99.90;;;;;;5014957;28;20040;-76
2021/11/24 10:17:25;;;;;;;12.23;4.43;;;8.20;99.90;;;;;;5014895;28;20478;-77
2021/11/24 10:20:17;;;;;;;;;;;8.20;99.90;;;;;;5004906;28;20034;-77
2021/11/24 10:22:42;;;;;;;9.18;3.75;;;8.20;99.90;;;;;;4993063;28;19916;-77
2021/11/24 10:25:14;;;;;;;10.18;4.10;;;8.30;99.90;;;;;;4997233;28;20025;-77
2021/11/24 10:27:43;;;;;;;11.90;4.03;;;8.30;99.90;;;;;;5013868;28;20026;-77
2021/11/24 10:30:10;;;;;;;7.47;3.20;;;8.30;99.90;;;;;;5025794;28;20030;-76
2021/11/24 10:32:35;;;;;;;9.50;4.05;;;8.30;99.90;;;;;;5014592;28;20080;-77
2021/11/24 10:35:03;;;;;;;8.50;3.50;;;8.40;99.90;;;;;;5013831;28;20105;-77
2021/11/24 10:37:29;;;;;;;7.70;2.83;;;8.40;99.90;;;;;;4997018;28;20014;-77
2021/11/24 10:40:02;;;;;;;5.60;2.13;;;8.40;99.90;;;;;;5014427;28;20094;-77
2021/11/24 10:42:36;;;;;;;5.68;2.33;;;8.40;99.90;;;;;;4996927;28;20022;-77
2021/11/24 10:45:14;;;;;;;5.65;2.35;;;8.40;99.90;;;;;;5014146;28;20014;-76
2021/11/24 10:47:58;;;;;;;6.88;2.00;;;8.50;99.90;;;;;;5012872;28;20382;-77
2021/11/24 10:50:33;;;;;;;6.32;2.25;;;8.50;99.90;;;;;;4996779;28;20034;-77
2021/11/24 10:52:58;;;;;;;9.20;2.67;;;8.50;99.90;;;;;;5014129;28;20510;-77
2021/11/24 10:55:33;;;;;;;8.27;3.05;;;8.50;99.90;;;;;;5014350;28;20021;-77
2021/11/24 10:58:04;;;;;;;6.30;2.40;;;8.50;99.90;;;;;;5013951;28;20028;-77
2021/11/24 11:00:42;;;;;;;7.72;2.85;;;8.40;99.90;;;;;;5016323;28;20045;-77
2021/11/24 11:03:09;;;;;;;6.93;2.72;;;8.40;99.90;;;;;;4998891;28;20022;-77
2021/11/24 11:05:36;;;;;;;5.60;2.33;;;8.40;99.90;;;;;;4999473;28;20018;-76
2021/11/24 11:08:07;;;;;;;7.57;3.10;;;8.40;99.90;;;;;;4999567;28;20021;-76
2021/11/24 11:10:37;;;;;;;7.50;3.35;;;8.30;99.90;;;;;;4999346;28;20025;-76
2021/11/24 11:13:11;;;;;;;7.57;2.83;;;8.40;99.90;;;;;;5016805;28;20447;-77
2021/11/24 11:15:41;;;;;;;8.82;3.25;;;8.40;99.90;;;;;;4999219;28;20029;-77
2021/11/24 11:18:12;;;;;;;7.18;3.38;;;8.40;99.90;;;;;;4986573;28;20022;-77
2021/11/24 11:20:58;;;;;;;8.55;4.07;;;8.40;99.90;;;;;;4986384;28;20030;-76
2021/11/24 11:23:26;;;;;;;7.40;3.00;;;8.40;99.90;;;;;;4998980;28;20034;-76
2021/11/24 11:25:59;;;;;;;6.60;3.47;;;8.40;99.90;;;;;;5000091;28;20018;-76
2021/11/24 11:28:27;;;;;;;6.75;3.03;;;8.50;99.90;;;;;;4998539;28;20268;-76
2021/11/24 11:30:56;;;;;;;7.07;3.50;;;8.40;99.90;;;;;;5016291;28;20068;-76
2021/11/24 11:33:26;;;;;;;7.18;2.85;;;8.50;99.90;;;;;;5016679;28;20541;-76
2021/11/24 11:35:52;;;;;;;10.45;4.20;;;8.50;99.90;;;;;;5016061;28;20029;-76
2021/11/24 11:38:20;;;;;;;6.97;3.60;;;8.50;99.90;;;;;;4998756;28;20029;-76
2021/11/24 11:40:48;;;;;;;8.27;3.80;;;8.60;99.90;;;;;;5017297;28;20026;-77
2021/11/24 11:43:15;;;;;;;9.40;4.17;;;8.50;99.90;;;;;;4998969;28;20265;-76
2021/11/24 11:45:41;;;;;;;8.00;4.03;;;8.60;99.90;;;;;;4998219;28;20014;-74
2021/11/24 11:48:08;;;;;;;8.25;4.43;;;8.60;99.90;;;;;;4995841;28;20102;-74
2021/11/24 11:50:58;;;;;;;10.27;4.60;;;8.60;99.90;;;;;;4995526;28;20108;-74
2021/11/24 11:53:34;;;;;;;9.90;4.78;;;8.60;99.90;;;;;;5013230;28;20029;-74
2021/11/24 11:56:19;;;;;;;10.70;4.88;;;8.60;99.90;;;;;;5013391;28;20026;-74
2021/11/24 11:58:52;;;;;;;9.45;4.93;;;8.60;99.90;;;;;;5013415;28;20037;-75
2021/11/24 12:01:39;;;;;;;12.32;5.30;;;8.70;99.90;;;;;;4995488;28;20056;-75
2021/11/24 12:04:16;;;;;;;13.48;6.45;;;8.70;99.90;;;;;;4978757;28;20026;-75
2021/11/24 12:06:44;;;;;;;16.65;6.35;;;8.80;99.90;;;;;;5005721;28;20015;-74
2021/11/24 12:09:11;;;;;;;16.80;7.32;;;8.80;99.90;;;;;;5013148;28;20440;-74
2021/11/24 12:12:04;;;;;;;13.07;5.78;;;8.80;99.90;;;;;;5013137;28;20088;-74
2021/11/24 12:14:50;;;;;;;12.43;6.80;;;8.70;99.90;;;;;;4992341;28;20026;-75
2021/11/24 12:17:28;;;;;;;16.77;6.70;;;8.80;99.90;;;;;;5002087;28;20033;-74
2021/11/24 12:20:00;;;;;;;14.65;6.00;;;8.70;99.90;;;;;;5013425;28;20029;-74
2021/11/24 12:22:50;;;;;;;12.88;6.47;;;8.70;99.90;;;;;;4995421;28;20113;-75
2021/11/24 12:25:26;;;;;;;12.55;6.30;;;8.70;99.90;;;;;;5013662;28;20037;-75
2021/11/24 12:27:54;;;;;;;13.52;6.60;;;8.60;99.90;;;;;;5013568;28;20041;-74
2021/11/24 12:33:21;;;;;;;13.10;6.32;;;8.60;99.90;;;;;;5012933;28;20625;-74
2021/11/24 12:35:54;;;;;;;14.52;6.57;;;8.60;99.90;;;;;;4996015;28;20041;-75
2021/11/24 12:38:22;;;;;;;14.05;6.45;;;8.60;99.90;;;;;;5013559;28;20026;-74
2021/11/24 12:40:51;;;;;;;12.70;5.97;;;8.60;99.90;;;;;;5015067;28;20105;-75
2021/11/24 12:43:20;;;;;;;12.57;6.53;;;8.60;99.90;;;;;;5016927;28;20026;-74
2021/11/24 12:46:15;;;;;;;11.88;5.88;;;8.60;99.90;;;;;;4999201;28;20014;-74
2021/11/24 12:48:47;;;;;;;11.75;6.07;;;8.50;99.90;;;;;;4999485;28;20064;-74
2021/11/24 12:51:30;;;;;;;10.65;5.88;;;8.50;99.90;;;;;;5016882;28;20026;-74
2021/11/24 12:54:11;;;;;;;12.13;6.63;;;8.50;99.90;;;;;;5016731;28;20466;-75
2021/11/24 12:56:44;;;;;;;13.70;7.10;;;8.50;99.90;;;;;;4997180;28;20025;-74
2021/11/24 12:59:13;;;;;;;13.30;6.80;;;8.50;99.90;;;;;;4998793;28;20041;-75